createdAt,value
2022-09-27T00:08:06.812Z,1.70
2022-09-27T00:22:06.421Z,1.70
2022-09-27T00:36:06.407Z,1.50
2022-09-27T00:50:06.439Z,1.60
2022-09-27T01:04:06.461Z,1.50
2022-09-27T01:18:06.421Z,1.60
2022-09-27T01:32:06.440Z,1.40
2022-09-27T01:46:06.501Z,1.40
2022-09-27T02:00:06.751Z,1.35
2022-09-27T02:14:06.610Z,1.25
2022-09-27T02:28:06.583Z,1.25
2022-09-27T02:42:06.596Z,1.15
2022-09-27T02:56:06.592Z,0.95
2022-09-27T03:10:06.597Z,1.10
2022-09-27T03:24:06.705Z,1.00
2022-09-27T03:38:06.707Z,0.90
2022-09-27T03:52:06.745Z,0.85
2022-09-27T04:06:06.869Z,0.80
2022-09-27T04:20:06.840Z,0.70
2022-09-27T04:34:06.829Z,0.90
2022-09-27T04:48:06.937Z,0.80
2022-09-27T05:02:06.981Z,0.80
2022-09-27T05:17:07.015Z,0.70
2022-09-27T05:32:06.994Z,0.80
2022-09-27T05:47:07.029Z,0.80
2022-09-27T06:02:07.141Z,1.00
2022-09-27T06:17:07.146Z,1.30
2022-09-27T06:32:07.140Z,1.60
2022-09-27T06:47:07.133Z,1.80
2022-09-27T07:02:07.140Z,1.80
2022-09-27T07:17:07.306Z,2.00
2022-09-27T07:32:07.308Z,2.05
2022-09-27T08:02:07.277Z,1.90
2022-09-27T08:17:07.238Z,2.00
2022-09-27T08:32:07.426Z,8.50
2022-09-27T08:47:07.421Z,7.60
2022-09-27T09:02:07.648Z,6.90
2022-09-27T09:17:07.512Z,6.60
2022-09-27T09:32:07.615Z,6.00
2022-09-27T09:47:07.529Z,5.60
2022-09-27T10:02:07.542Z,5.20
2022-09-27T10:17:07.544Z,4.50
2022-09-27T10:32:07.560Z,4.60
2022-09-27T10:44:47.488Z,4.00
2022-09-27T10:58:47.151Z,4.00
2022-09-27T11:13:47.397Z,3.50
2022-09-27T11:28:47.299Z,3.10
2022-09-27T11:43:47.393Z,3.10
2022-09-27T11:58:47.350Z,3.30
2022-09-27T12:13:47.576Z,3.00
2022-09-27T12:28:47.655Z,9.00
2022-09-27T12:43:48.870Z,9.45
2022-09-27T12:58:47.654Z,10.00
2022-09-27T13:13:47.980Z,8.90
2022-09-27T13:28:47.972Z,8.20
2022-09-27T13:43:47.937Z,6.90
2022-09-27T13:58:47.982Z,6.60
2022-09-27T14:13:48.083Z,6.10
2022-09-27T14:28:48.105Z,5.40
2022-09-27T14:43:48.106Z,5.00
2022-09-27T14:58:48.440Z,4.50
2022-09-27T15:13:48.062Z,4.30
2022-09-27T15:28:48.086Z,3.80
2022-09-27T15:43:48.065Z,3.70
2022-09-27T15:58:48.886Z,3.70
2022-09-27T16:13:48.319Z,3.30
2022-09-27T16:28:48.156Z,3.10
2022-09-27T16:43:48.146Z,3.00
2022-09-27T16:59:48.163Z,2.80
2022-09-27T17:14:48.186Z,2.60
2022-09-27T17:29:48.306Z,2.40
2022-09-27T17:43:48.274Z,2.40
2022-09-27T17:57:48.335Z,2.20
2022-09-27T18:11:49.479Z,2.20
2022-09-27T18:25:49.512Z,2.00
2022-09-27T18:39:49.107Z,2.00
2022-09-27T18:53:49.680Z,1.85
2022-09-27T19:07:48.516Z,1.75
2022-09-27T19:21:48.510Z,1.90
2022-09-27T19:35:49.432Z,1.90
2022-09-27T19:49:48.509Z,1.60
2022-09-27T20:03:49.442Z,1.50
2022-09-27T20:17:48.688Z,1.50
2022-09-27T20:32:09.293Z,1.40
2022-09-27T20:45:49.228Z,1.40
2022-09-27T20:59:48.873Z,1.30
2022-09-27T21:13:48.595Z,1.30
2022-09-27T21:27:48.624Z,1.30
2022-09-27T21:41:48.657Z,1.10
2022-09-27T21:55:48.632Z,1.20
2022-09-27T22:09:48.643Z,1.00
2022-09-27T22:23:48.641Z,0.90
2022-09-27T22:37:48.652Z,0.90
2022-09-27T22:51:48.635Z,1.00
2022-09-27T23:05:48.686Z,1.00
2022-09-27T23:19:48.686Z,0.90
2022-09-27T23:33:48.684Z,0.90
2022-09-27T23:47:48.703Z,0.80
